0W0SEATTLE SEAPLANES
METARs for airports near 0W0, sorted by distance:
S 5 nm 21' KBFI 142353Z 21008KT 10SM CLR 29/14 A2999
SE 9 nm 32' KRNT 142353Z 24007KT 10SM CLR 29/14 A2999
S 10 nm 432' KSEA 142353Z VRB06KT 10SM FEW030 28/12 A3002
N 16 nm 606' KPAE 142353Z 35007KT 10SM CLR 26/14 A3003
SW 19 nm 444' KPWT 142356Z 20007KT 10SM CLR 28/14 A3002
SW 23 nm 294' KTIW 142353Z 23009G16KT 10SM CLR 27/11 A3002
S 30 nm 322' KTCM 142355Z 31009KT 10SM CLR 29/13 A3001
S 31 nm 537' KPLU 142355Z VRB06KT 9SM CLR 31/14 A3002
N 32 nm 141' KAWO 142356Z 32010KT 10SM CLR 28/16 A3000
S 34 nm 301' KGRF 142355Z 25008KT 10SM CLR 29/12 A2999
SW 40 nm 272' KSHN 142353Z 23019G25KT 10SM CLR 24/12 A3000
N 45 nm 47' KNUW 142353Z 24009KT 10SM FEW030 18/13 A3003
SW 45 nm 207' KOLM 142354Z 21011KT 10SM CLR 27/12 A3003
N 50 nm 145' KBVS 142355Z 00000KT 7SM CLR 26/16 A3001
NW 53 nm 13' KNOW 142355Z 29016KT 10SM CLR 16/13 A3004
NW 55 nm 291' KCLM 142353Z 29008KT 10SM CLR 21/13 A3005
NW 60 nm 112' KFHR 142353Z 23008KT 10SM CLR 25/12 A3002
SW 62 nm 177' KCLS 142355Z 30007KT 10SM CLR 26/13 A3005
N 68 nm 34' KORS 142355Z 00000KT 9SM CLR 23/14 A2999
N 70 nm 171' KBLI 142353Z 19005KT 10SM CLR 25/15 A3000
NW 75 nm 64' CYYJ 142300Z 12012KT 30SM SKC 24/12 A2999
SW 76 nm 17' KHQM 142353Z 28012KT 10SM OVC009 15/13 A3012
SE 81 nm 1763' KELN 142353Z 29026G36KT 10SM CLR 34/07 A2992
E 87 nm 1248' KEAT 142355Z 32016G26KT 10SM CLR 37/04 A2983
W 91 nm 194' KUIL 142353Z 25008KT 10SM OVC007 15/13 A3012
S 93 nm 20' KKLS 142356Z 28010KT 10SM CLR 26/16 A3005
SE 96 nm 1098' KYKM 142353Z 33009G17KT 10SM CLR 38/07 A2985
TAFs for airports near 0W0, sorted by distance:
S 5 nm 21' KBFI KBFI 141725Z 1418/1518 26006KT P6SM SKC
  FM150300 VRB03KT P6SM SKC
  FM151300 20004KT P6SM SCT015
  FM151700 22007KT P6SM SKC
S 10 nm 432' KSEA KSEA 142058Z 1421/1524 21008KT P6SM SKC
  FM151300 20004KT P6SM SCT015
  FM151700 22007KT P6SM SKC
N 16 nm 606' KPAE KPAE 141725Z 1418/1518 27005KT P6SM SKC
  FM142200 34007KT P6SM SKC
  FM150600 VRB04KT P6SM SKC
  FM151300 22004KT P6SM SCT015
  FM151700 25006KT P6SM SKC
SW 19 nm 444' KPWT TAF KPWT 141725Z 1418/1518 22005KT P6SM SKC
  FM150600 19004KT P6SM SKC
  FM151000 20004KT P6SM BKN015
  FM151700 22004KT P6SM SCT025
S 30 nm 322' KTCM TAF
  AMD KTCM 141900Z 1419/1519 23006KT 9999 SKC QNH3003INS
  BECMG 1420/1421 23010G15KT 9999 SKC QNH3003INS
  TEMPO 1421/1524 24015G20KT
  BECMG 1512/1513 20006KT 9999 BKN020 QNH3004INS
  BECMG 1516/1517 20006KT 9999 SKC QNH3011INS TX30/1421Z TN13/1509Z LAST NO
  AMDS AFT 1419 NEXT 1513
S 34 nm 301' KGRF TAF TAF KGRF 122100Z 1221/1403 35007KT 9999 SKC QNH2998INS
  BECMG 1304/1305 36005KT 9999 SKC QNH2998INS
  BECMG 1317/1318 01009KT 9999 SKC QNH2995INS
  BECMG 1401/1402 34005KT 9999 SKC QNH2995INS TX29/1300Z TN14/1313Z
N 45 nm 47' KNUW TAF KNUW 1423/1523 27009KT 9999 FEW030 QNH3000INS
  BECMG 1506/1507 VRB06KT 9000 BR FEW009 QNH3002INS
  TEMPO 1511/1517 8000 BR MIFG SCT009
  BECMG 1520/1521 27007KT 9999 SKC QNH3010INS TX21/1522Z TN11/1512Z FS30190
SW 45 nm 207' KOLM KOLM 141725Z 1418/1518 23006KT P6SM SKC
  FM150900 20005KT 6SM BR SCT002 BKN020
  FM151700 21005KT P6SM SCT020
NW 55 nm 291' KCLM KCLM 141725Z 1418/1518 32009KT P6SM SKC
  FM150000 29010KT P6SM SKC
  FM150900 32006KT P6SM SCT025
N 70 nm 171' KBLI KBLI 141725Z 1418/1518 19006KT P6SM SKC
SW 76 nm 17' KHQM KHQM 142105Z 1421/1518 27013KT P6SM BKN010
  FM150100 28010KT P6SM OVC003
E 87 nm 1248' KEAT TAF KEAT 141722Z 1418/1518 28008KT P6SM SKC
  FM142000 30014G22KT P6SM SKC
  FM142300 31021G28KT P6SM SKC
  FM150600 30015KT P6SM SKC
SE 96 nm 1098' KYKM TAF KYKM 141720Z 1418/1518 32008KT P6SM SKC
  FM142300 30014G23KT P6SM SKC
  FM151200 28005KT P6SM SKC

Shortcut to this page: http://wxbay.com.

Data may contain errors.